createdAt,value
2023-03-07T00:01:22.527Z,3.34
2023-03-07T00:06:26.753Z,3.35
2023-03-07T00:11:30.150Z,3.45
2023-03-07T00:16:33.045Z,3.48
2023-03-07T00:21:37.028Z,3.49
2023-03-07T00:26:39.868Z,3.50
2023-03-07T00:31:42.506Z,3.52
2023-03-07T00:36:46.390Z,3.54
2023-03-07T00:41:48.942Z,3.56
2023-03-07T00:46:51.460Z,3.56
2023-03-07T00:51:55.659Z,3.67
2023-03-07T00:56:58.214Z,3.65
2023-03-07T01:02:00.739Z,3.65
2023-03-07T01:07:04.730Z,3.56
2023-03-07T01:12:07.942Z,3.53
2023-03-07T01:17:10.526Z,3.49
2023-03-07T01:22:14.394Z,3.44
2023-03-07T01:27:17.014Z,3.41
2023-03-07T01:32:19.686Z,3.25
2023-03-07T01:37:23.654Z,3.08
2023-03-07T01:42:30.422Z,3.03
2023-03-07T01:47:33.222Z,3.08
2023-03-07T01:52:40.878Z,3.19
2023-03-07T01:57:45.645Z,3.34
2023-03-07T02:02:56.505Z,3.49
2023-03-07T02:08:03.448Z,3.57
2023-03-07T02:13:06.020Z,3.63
2023-03-07T02:18:09.736Z,3.66
2023-03-07T02:23:24.954Z,3.64
2023-03-07T02:28:29.541Z,3.62
2023-03-07T02:33:32.123Z,3.51
2023-03-07T02:38:38.053Z,3.38
2023-03-07T02:43:42.112Z,3.33
2023-03-07T02:48:44.662Z,3.26
2023-03-07T02:53:47.236Z,3.19
2023-03-07T02:58:51.110Z,3.19
2023-03-07T03:03:53.695Z,3.16
2023-03-07T03:08:56.247Z,3.14
2023-03-07T03:14:00.174Z,3.14
2023-03-07T03:19:03.374Z,3.13
2023-03-07T03:24:06.906Z,3.09
2023-03-07T03:29:11.168Z,3.07
2023-03-07T03:34:14.038Z,3.03
2023-03-07T03:39:16.579Z,3.02
2023-03-07T03:44:20.509Z,3.00
2023-03-07T03:49:23.045Z,2.99
2023-03-07T03:54:25.630Z,2.98
2023-03-07T03:59:29.518Z,2.97
2023-03-07T04:04:32.023Z,2.96
2023-03-07T04:09:34.572Z,2.95
2023-03-07T04:14:38.464Z,2.96
2023-03-07T04:19:40.988Z,2.99
2023-03-07T04:24:45.169Z,3.04
2023-03-07T04:29:49.100Z,3.02
2023-03-07T04:34:51.659Z,3.03
2023-03-07T04:39:54.215Z,2.99
2023-03-07T04:44:58.122Z,2.81
2023-03-07T04:50:00.682Z,2.59
2023-03-07T04:55:03.541Z,2.44
2023-03-07T05:00:10.044Z,2.13
2023-03-07T05:05:12.655Z,2.01
2023-03-07T05:10:15.250Z,2.00
2023-03-07T05:15:19.206Z,1.94
2023-03-07T05:20:21.990Z,1.94
2023-03-07T05:25:24.612Z,1.94
2023-03-07T05:30:28.553Z,1.98
2023-03-07T05:35:31.114Z,2.02
2023-03-07T05:40:33.658Z,2.05
2023-03-07T05:45:37.718Z,2.10
2023-03-07T05:50:41.971Z,2.15
2023-03-07T05:55:45.250Z,2.18
2023-03-07T06:00:49.488Z,2.18
2023-03-07T06:05:52.199Z,2.17
2023-03-07T06:10:55.948Z,2.22
2023-03-07T06:15:59.886Z,2.25
2023-03-07T06:21:04.713Z,2.25
2023-03-07T06:26:08.379Z,2.26
2023-03-07T06:31:13.957Z,2.34
2023-03-07T06:36:18.895Z,2.28
2023-03-07T06:41:21.479Z,2.25
2023-03-07T06:46:25.591Z,2.18
2023-03-07T06:51:28.141Z,2.02
2023-03-07T06:56:31.259Z,1.89
2023-03-07T07:01:35.907Z,1.76
2023-03-07T07:06:38.609Z,1.68
2023-03-07T07:11:41.336Z,1.62
2023-03-07T07:16:45.265Z,1.61
2023-03-07T07:21:47.875Z,1.57
2023-03-07T07:26:50.751Z,1.53
2023-03-07T07:31:55.128Z,1.41
2023-03-07T07:36:57.799Z,1.37
2023-03-07T07:42:00.325Z,1.29
2023-03-07T07:47:04.612Z,1.22
2023-03-07T07:52:07.300Z,1.15
2023-03-07T07:57:09.954Z,1.14
2023-03-07T08:02:14.526Z,1.04
2023-03-07T08:07:17.295Z,1.05
2023-03-07T08:12:19.832Z,1.12
2023-03-07T08:17:23.738Z,1.23
2023-03-07T08:22:26.275Z,1.23
2023-03-07T08:27:29.130Z,1.31
2023-03-07T08:32:33.075Z,1.48
2023-03-07T08:37:36.176Z,1.74
2023-03-07T08:42:38.864Z,1.94
2023-03-07T08:47:42.947Z,2.03
2023-03-07T08:52:45.474Z,2.35
2023-03-07T08:57:48.163Z,2.52
2023-03-07T09:02:52.056Z,2.68
2023-03-07T09:07:54.967Z,3.16
2023-03-07T09:12:57.623Z,3.28
2023-03-07T09:18:01.492Z,3.10
2023-03-07T09:23:04.126Z,3.31
2023-03-07T09:28:06.760Z,3.13
2023-03-07T09:33:10.747Z,3.18
2023-03-07T09:38:13.368Z,3.30
2023-03-07T09:43:20.735Z,3.30
2023-03-07T09:48:56.743Z,3.42
2023-03-07T09:54:04.772Z,3.47
2023-03-07T09:59:22.640Z,3.58
2023-03-07T10:04:33.991Z,3.70
2023-03-07T10:09:36.643Z,3.84
2023-03-07T10:14:54.842Z,3.79
2023-03-07T10:20:09.312Z,3.66
2023-03-07T10:25:25.291Z,3.56
2023-03-07T10:30:32.277Z,3.91
2023-03-07T10:35:42.341Z,4.39
2023-03-07T10:40:49.747Z,4.60
2023-03-07T10:45:57.550Z,4.62
2023-03-07T10:51:10.114Z,4.67
2023-03-07T10:56:15.157Z,4.77
2023-03-07T11:01:20.680Z,4.78
2023-03-07T11:06:37.383Z,4.87
2023-03-07T11:11:39.972Z,5.19
2023-03-07T11:16:43.334Z,5.11
2023-03-07T11:21:54.888Z,5.02
2023-03-07T11:26:59.073Z,4.78
2023-03-07T11:32:12.215Z,4.98
2023-03-07T11:37:39.451Z,5.43
2023-03-07T11:42:52.069Z,6.10
2023-03-07T11:48:05.858Z,5.94
2023-03-07T11:53:25.879Z,6.24
2023-03-07T11:58:51.175Z,6.31
2023-03-07T12:04:15.415Z,6.72
2023-03-07T12:09:41.648Z,6.77
2023-03-07T12:14:55.764Z,6.52
2023-03-07T12:20:21.676Z,6.35
2023-03-07T12:25:32.751Z,5.98
2023-03-07T12:30:45.779Z,5.36
2023-03-07T12:35:52.685Z,5.21
2023-03-07T12:41:02.631Z,5.03
2023-03-07T12:46:14.653Z,4.42
2023-03-07T12:51:23.573Z,4.51
2023-03-07T12:56:33.711Z,4.56
2023-03-07T13:01:39.088Z,4.45
2023-03-07T13:06:42.594Z,4.07
2023-03-07T13:12:24.242Z,3.47
2023-03-07T13:17:59.522Z,2.70
2023-03-07T13:23:14.514Z,2.13
2023-03-07T13:28:37.104Z,2.05
2023-03-07T13:33:39.748Z,2.63
2023-03-07T13:38:44.916Z,3.43
2023-03-07T13:44:01.513Z,4.06
2023-03-07T13:49:04.141Z,4.27
2023-03-07T13:54:11.414Z,4.28
2023-03-07T13:59:24.514Z,4.08
2023-03-07T14:04:39.933Z,4.36
2023-03-07T14:09:47.992Z,4.56
2023-03-07T14:15:02.740Z,4.68
2023-03-07T14:20:14.524Z,4.86
2023-03-07T14:25:21.231Z,4.96
2023-03-07T14:30:27.172Z,4.97
2023-03-07T14:35:38.061Z,4.79
2023-03-07T14:40:55.935Z,4.56
2023-03-07T14:46:08.229Z,4.70
2023-03-07T14:51:15.700Z,4.10
2023-03-07T14:56:23.712Z,4.01
2023-03-07T15:01:33.362Z,3.72
2023-03-07T15:06:45.389Z,2.40
2023-03-07T15:11:53.887Z,1.47
2023-03-07T15:17:03.067Z,0.96
2023-03-07T15:22:13.192Z,0.86
2023-03-07T15:27:26.609Z,1.06
2023-03-07T15:32:36.493Z,1.22
2023-03-07T15:37:53.502Z,1.37
2023-03-07T15:42:57.435Z,1.44
2023-03-07T15:48:10.117Z,1.55
2023-03-07T15:53:27.444Z,1.73
2023-03-07T15:58:30.788Z,1.85
2023-03-07T16:03:35.358Z,1.85
2023-03-07T16:08:37.972Z,1.96
2023-03-07T16:13:43.488Z,2.02
2023-03-07T16:18:47.874Z,2.02
2023-03-07T16:23:51.034Z,1.98
2023-03-07T16:28:54.794Z,1.95
2023-03-07T16:33:58.740Z,1.85
2023-03-07T16:39:01.274Z,1.74
2023-03-07T16:44:03.811Z,1.67
2023-03-07T16:49:07.679Z,1.59
2023-03-07T16:54:10.267Z,1.57
2023-03-07T16:59:15.476Z,1.47
2023-03-07T17:04:19.471Z,1.38
2023-03-07T17:09:22.015Z,1.28
2023-03-07T17:14:24.585Z,1.20
2023-03-07T17:19:30.617Z,1.14
2023-03-07T17:24:33.123Z,1.10
2023-03-07T17:29:40.800Z,1.18
2023-03-07T17:34:45.030Z,1.26
2023-03-07T17:39:48.397Z,1.28
2023-03-07T17:44:50.932Z,1.32
2023-03-07T17:49:54.795Z,1.31
2023-03-07T17:54:57.328Z,0.96
2023-03-07T17:59:59.882Z,0.69
2023-03-07T18:05:03.788Z,0.47
2023-03-07T18:10:09.001Z,0.37
2023-03-07T18:15:15.114Z,0.22
2023-03-07T18:20:21.418Z,0.08
2023-03-07T18:25:25.603Z,0.04
2023-03-07T18:30:28.277Z,0.04
2023-03-07T18:35:33.170Z,0.04
2023-03-07T18:40:35.750Z,0.05
2023-03-07T18:45:42.844Z,0.10
2023-03-07T18:50:56.550Z,0.06
2023-03-07T18:56:02.788Z,0.01
2023-03-07T19:01:12.752Z,-0.10
2023-03-07T19:06:18.478Z,-0.22
2023-03-07T19:11:22.782Z,-0.21
2023-03-07T19:16:28.157Z,-0.18
2023-03-07T19:21:32.514Z,-0.27
2023-03-07T19:26:35.202Z,-0.49
2023-03-07T19:31:37.853Z,-0.62
2023-03-07T19:36:42.372Z,-0.72
2023-03-07T19:41:47.939Z,-0.80
2023-03-07T19:46:50.518Z,-0.93
2023-03-07T19:51:54.370Z,-1.02
2023-03-07T19:56:56.913Z,-1.13
2023-03-07T20:01:59.481Z,-1.28
2023-03-07T20:07:03.344Z,-1.39
2023-03-07T20:12:06.346Z,-1.30
2023-03-07T20:17:09.701Z,-1.24
2023-03-07T20:22:13.632Z,-1.38
2023-03-07T20:27:20.386Z,-1.58
2023-03-07T20:32:23.010Z,-1.69
2023-03-07T20:37:27.530Z,-1.49
2023-03-07T20:42:30.336Z,-1.37
2023-03-07T20:47:36.247Z,-1.41
2023-03-07T20:52:40.221Z,-1.58
2023-03-07T20:57:42.876Z,-1.57
2023-03-07T21:02:48.066Z,-1.79
2023-03-07T21:07:52.157Z,-1.97
2023-03-07T21:12:54.693Z,-2.03
2023-03-07T21:17:57.262Z,-2.09
2023-03-07T21:23:01.447Z,-2.13
2023-03-07T21:28:03.985Z,-2.00
2023-03-07T21:33:06.539Z,-1.88
2023-03-07T21:38:10.417Z,-1.96
2023-03-07T21:43:13.447Z,-2.13
2023-03-07T21:48:17.337Z,-2.29
2023-03-07T21:53:21.264Z,-2.39
2023-03-07T21:58:24.568Z,-2.43
2023-03-07T22:03:28.964Z,-2.50
2023-03-07T22:08:32.870Z,-2.39
2023-03-07T22:13:39.563Z,-2.29
2023-03-07T22:18:42.198Z,-2.32
2023-03-07T22:23:46.388Z,-2.47
2023-03-07T22:28:48.910Z,-2.56
2023-03-07T22:33:51.541Z,-2.41
2023-03-07T22:38:56.718Z,-2.36
2023-03-07T22:43:59.687Z,-2.45
2023-03-07T22:49:02.265Z,-2.43
2023-03-07T22:54:07.239Z,-2.36
2023-03-07T22:59:10.608Z,-2.20
2023-03-07T23:04:13.391Z,-2.12
2023-03-07T23:09:17.367Z,-2.06
2023-03-07T23:14:19.942Z,-2.13
2023-03-07T23:19:22.588Z,-2.18
2023-03-07T23:24:26.510Z,-2.28
2023-03-07T23:29:29.058Z,-2.33
2023-03-07T23:34:31.724Z,-2.32
2023-03-07T23:39:35.702Z,-2.27
2023-03-07T23:44:38.292Z,-2.10
2023-03-07T23:49:40.860Z,-1.92
2023-03-07T23:54:46.496Z,-1.87
2023-03-07T23:59:49.620Z,-2.03
